Time;durP1;ratioP1;P1;durP2;ratioP2;P2;SDS_P1;SDS_P2;PMS_P1;PMS_P2;Temp;Humidity;BMP_temperature;BMP_pressure;BME280_temperature;BME280_humidity;BME280_pressure;Samples;Min_cycle;Max_cycle;Signal;HPM_P1;HPM_P2
2022/05/13 00:01:07;;;;;;;;;;;19.30;73.60;;;;;;4917891;29;19915;-73
2022/05/13 00:03:33;;;;;;;;;;;19.20;73.90;;;;;;4917944;29;19977;-73
2022/05/13 00:05:59;;;;;;;;;;;19.20;73.60;;;;;;4917722;29;20430;-72
2022/05/13 00:08:24;;;;;;;;;;;19.10;73.90;;;;;;4917634;29;19927;-74
2022/05/13 00:10:50;;;;;;;;;;;19.10;74.30;;;;;;4918400;29;19922;-59
2022/05/13 00:13:15;;;;;;;;;;;19.10;73.60;;;;;;4917941;29;20047;-60
2022/05/13 00:15:42;;;;;;;;;;;19.10;74.00;;;;;;4918076;29;19959;-59
2022/05/13 00:18:08;;;;;;;;;;;19.10;73.50;;;;;;4918000;29;19918;-60
2022/05/13 00:20:34;;;;;;;;;;;19.00;73.30;;;;;;4917735;29;19919;-60
2022/05/13 00:22:59;;;;;;;;;;;19.00;73.70;;;;;;4918244;29;19990;-60
2022/05/13 00:25:26;;;;;;;;;;;18.90;74.20;;;;;;4917906;29;19933;-59
2022/05/13 00:27:55;;;;;;;;;;;18.90;74.20;;;;;;4917653;29;19915;-59
2022/05/13 00:30:21;;;;;;;;;;;18.80;74.10;;;;;;4917794;29;19916;-60
2022/05/13 00:32:48;;;;;;;;;;;18.80;74.50;;;;;;4917461;29;20408;-64
2022/05/13 00:35:15;;;;;;;;;;;18.80;74.10;;;;;;4917543;29;19911;-65
2022/05/13 00:37:40;;;;;;;;;;;18.90;73.10;;;;;;4917826;29;19911;-59
2022/05/13 00:40:07;;;;;;;;;;;19.00;72.40;;;;;;4917487;29;19918;-67
2022/05/13 00:42:32;;;;;;;;;;;19.10;72.20;;;;;;4917714;29;20359;-61
2022/05/13 00:44:58;;;;;;;;;;;19.00;72.70;;;;;;4900558;29;20011;-59
2022/05/13 00:47:24;;;;;;;;;;;18.90;73.00;;;;;;4917589;29;19927;-59
2022/05/13 00:49:50;;;;;;;;;;;18.90;72.70;;;;;;4917159;29;20467;-59
2022/05/13 00:52:16;;;;;;;;;;;18.90;73.10;;;;;;4917477;29;19911;-61
2022/05/13 00:54:42;;;;;;;;;;;19.00;73.60;;;;;;4918259;29;19911;-64
2022/05/13 00:57:11;;;;;;;;;;;18.90;74.10;;;;;;4921481;29;19911;-62
2022/05/13 00:59:38;;;;;;;;;;;18.80;74.50;;;;;;4921077;29;20275;-66
2022/05/13 01:02:03;;;;;;;;;;;18.70;74.60;;;;;;4921069;29;19923;-61
2022/05/13 01:04:30;;;;;;;;;;;18.60;74.50;;;;;;4921220;29;20440;-60
2022/05/13 01:06:58;;;;;;;;;;;18.70;74.30;;;;;;4921108;29;19939;-62
2022/05/13 01:09:26;;;;;;;;;;;18.70;73.70;;;;;;4920725;29;19926;-59
2022/05/13 01:11:53;;;;;;;;;;;18.90;72.50;;;;;;4921024;29;19915;-70
2022/05/13 01:14:24;;;;;;;;;;;18.90;72.30;;;;;;4920808;29;19923;-59
2022/05/13 01:19:34;;;;;;;;;;;19.00;70.90;;;;;;4921134;29;19940;-66
2022/05/13 01:22:15;;;;;;;;;;;19.00;71.60;;;;;;4920576;29;19915;-60
2022/05/13 01:24:41;;;;;;;;;;;19.00;71.60;;;;;;4920516;29;19915;-59
2022/05/13 01:27:07;;;;;;;;;;;18.90;71.80;;;;;;4920412;29;20264;-71
2022/05/13 01:29:32;;;;;;;;;;;18.80;72.80;;;;;;4920380;29;19926;-61
2022/05/13 01:31:58;;;;;;;;;;;18.80;72.90;;;;;;4920693;29;19967;-61
2022/05/13 01:34:23;;;;;;;;;;;18.70;73.60;;;;;;4920354;29;19912;-62
2022/05/13 01:36:49;;;;;;;;;;;18.60;73.60;;;;;;4920466;29;19919;-59
2022/05/13 01:39:14;;;;;;;;;;;18.60;73.40;;;;;;4920116;29;19911;-66
2022/05/13 01:41:40;;;;;;;;;;;18.70;72.40;;;;;;4920275;29;19926;-62
2022/05/13 01:44:05;;;;;;;;;;;18.70;72.20;;;;;;4920085;29;20382;-63
2022/05/13 01:46:31;;;;;;;;;;;18.50;72.90;;;;;;4920358;29;20279;-74
2022/05/13 01:48:57;;;;;;;;;;;18.60;71.50;;;;;;4920247;29;19920;-72
2022/05/13 01:51:23;;;;;;;;;;;18.60;71.70;;;;;;4920039;29;19915;-71
2022/05/13 01:53:48;;;;;;;;;;;18.40;73.30;;;;;;4920006;29;19967;-74
2022/05/13 01:56:14;;;;;;;;;;;18.30;73.90;;;;;;4920055;29;19918;-73
2022/05/13 01:58:40;;;;;;;;;;;18.20;73.80;;;;;;4919782;29;19958;-71
2022/05/13 02:01:07;;;;;;;;;;;18.20;73.90;;;;;;4920107;29;20014;-73
2022/05/13 02:03:45;;;;;;;;;;;18.20;74.10;;;;;;4919719;29;19945;-73
2022/05/13 02:06:17;;;;;;;;;;;18.10;74.60;;;;;;4918814;29;19915;-72
2022/05/13 02:08:42;;;;;;;;;;;18.00;74.80;;;;;;4919609;29;19919;-73
2022/05/13 02:11:09;;;;;;;;;;;18.00;74.40;;;;;;4919629;29;19918;-74
2022/05/13 02:13:35;;;;;;;;;;;18.00;75.00;;;;;;4920057;29;20010;-73
2022/05/13 02:16:01;;;;;;;;;;;18.00;74.50;;;;;;4919778;29;20371;-73
2022/05/13 02:18:27;;;;;;;;;;;18.00;74.60;;;;;;4919845;29;19911;-74
2022/05/13 02:20:52;;;;;;;;;;;17.90;74.20;;;;;;4919641;29;20414;-72
2022/05/13 02:23:19;;;;;;;;;;;17.90;74.00;;;;;;4919637;29;19942;-73
2022/05/13 02:25:45;;;;;;;;;;;17.70;74.20;;;;;;4919434;29;20335;-74
2022/05/13 02:28:11;;;;;;;;;;;17.70;74.30;;;;;;4919785;29;19919;-72
2022/05/13 02:30:36;;;;;;;;;;;17.70;74.10;;;;;;4919315;29;19911;-73
2022/05/13 02:33:02;;;;;;;;;;;17.60;73.70;;;;;;4919477;29;19918;-73
2022/05/13 02:35:28;;;;;;;;;;;17.70;72.80;;;;;;4919362;29;19911;-74
2022/05/13 02:37:53;;;;;;;;;;;17.70;72.80;;;;;;4919245;29;19918;-70
2022/05/13 02:40:20;;;;;;;;;;;17.70;72.60;;;;;;4919165;29;19911;-73
2022/05/13 02:42:45;;;;;;;;;;;17.70;72.10;;;;;;4919447;29;19915;-73
2022/05/13 02:45:11;;;;;;;;;;;17.60;72.00;;;;;;4919431;29;19968;-73
2022/05/13 02:47:37;;;;;;;;;;;17.60;72.10;;;;;;4919065;29;19912;-71
2022/05/13 02:50:18;;;;;;;;;;;17.70;70.10;;;;;;4919065;29;19916;-74
2022/05/13 02:52:44;;;;;;;;;;;17.80;69.90;;;;;;4919115;29;20266;-71
2022/05/13 02:55:10;;;;;;;;;;;17.90;68.40;;;;;;4918961;29;19922;-74
2022/05/13 02:57:36;;;;;;;;;;;18.10;67.70;;;;;;4918930;29;19912;-73
2022/05/13 03:00:03;;;;;;;;;;;18.10;67.10;;;;;;4918954;29;19969;-72
2022/05/13 03:02:29;;;;;;;;;;;18.10;66.60;;;;;;4918956;29;19931;-73
2022/05/13 03:04:54;;;;;;;;;;;18.20;65.70;;;;;;4918825;29;20256;-70
2022/05/13 03:07:20;;;;;;;;;;;18.20;65.60;;;;;;4919230;29;19915;-73
2022/05/13 03:09:45;;;;;;;;;;;18.20;65.70;;;;;;4918721;29;19923;-73
2022/05/13 03:12:11;;;;;;;;;;;18.10;66.20;;;;;;4918812;29;19918;-70
2022/05/13 03:14:38;;;;;;;;;;;18.20;65.10;;;;;;4918607;29;19912;-73
2022/05/13 03:17:04;;;;;;;;;;;18.20;65.90;;;;;;4918632;29;20271;-74
2022/05/13 03:19:30;;;;;;;;;;;18.10;66.00;;;;;;4918414;29;19911;-62
2022/05/13 03:21:56;;;;;;;;;;;18.10;66.20;;;;;;4918312;29;19918;-59
2022/05/13 03:24:21;;;;;;;;;;;18.10;65.00;;;;;;4918309;29;19911;-71
2022/05/13 03:26:47;;;;;;;;;;;18.10;65.60;;;;;;4918702;29;19912;-68
2022/05/13 03:29:13;;;;;;;;;;;18.00;66.50;;;;;;4918417;29;19930;-64
2022/05/13 03:31:38;;;;;;;;;;;18.00;66.50;;;;;;4918567;29;19949;-61
2022/05/13 03:34:04;;;;;;;;;;;17.90;67.40;;;;;;4918293;29;19911;-63
2022/05/13 03:36:31;;;;;;;;;;;17.90;67.00;;;;;;4918141;29;20463;-62
2022/05/13 03:38:57;;;;;;;;;;;17.90;66.60;;;;;;4918161;29;19972;-68
2022/05/13 03:41:22;;;;;;;;;;;17.90;66.40;;;;;;4918205;29;19911;-63
2022/05/13 03:43:48;;;;;;;;;;;17.80;67.50;;;;;;4918247;29;19911;-74
2022/05/13 03:46:13;;;;;;;;;;;17.80;67.00;;;;;;4918356;29;19918;-73
2022/05/13 03:48:39;;;;;;;;;;;17.80;67.60;;;;;;4917936;29;19966;-74
2022/05/13 03:51:04;;;;;;;;;;;17.70;68.20;;;;;;4918168;29;20406;-73
2022/05/13 03:53:30;;;;;;;;;;;17.60;68.50;;;;;;4917837;29;19975;-73
2022/05/13 03:55:55;;;;;;;;;;;17.50;69.20;;;;;;4918057;29;19911;-72
2022/05/13 03:58:21;;;;;;;;;;;17.50;69.60;;;;;;4917880;29;20359;-73
2022/05/13 04:00:47;;;;;;;;;;;17.50;69.40;;;;;;4917801;29;19911;-71
2022/05/13 04:03:12;;;;;;;;;;;17.50;69.60;;;;;;4917882;29;19923;-75
2022/05/13 04:11:07;;;;;;;;;;;17.50;70.00;;;;;;4918119;29;20126;-73
2022/05/13 04:16:17;;;;;;;;;;;17.50;70.30;;;;;;4917843;29;20039;-74
2022/05/13 04:18:43;;;;;;;;;;;17.50;69.80;;;;;;4917353;29;19968;-74
2022/05/13 04:21:15;;;;;;;;;;;17.50;70.10;;;;;;4917573;29;19911;-73
2022/05/13 04:23:42;;;;;;;;;;;17.50;70.00;;;;;;4917799;29;19922;-72
2022/05/13 04:26:07;;;;;;;;;;;17.50;69.20;;;;;;4917565;29;19911;-71
2022/05/13 04:28:33;;;;;;;;;;;17.60;70.00;;;;;;4917230;29;20067;-72
2022/05/13 04:30:59;;;;;;;;;;;17.60;70.30;;;;;;4920580;29;19915;-73
2022/05/13 04:33:25;;;;;;;;;;;17.70;69.10;;;;;;4921472;29;20327;-71
2022/05/13 04:35:51;;;;;;;;;;;17.90;67.80;;;;;;4921487;29;19911;-73
2022/05/13 04:38:17;;;;;;;;;;;17.90;68.30;;;;;;4921471;29;19917;-73
2022/05/13 04:40:42;;;;;;;;;;;18.00;67.50;;;;;;4921345;29;19911;-74
2022/05/13 04:43:08;;;;;;;;;;;18.10;67.30;;;;;;4921343;29;19918;-73
2022/05/13 04:45:34;;;;;;;;;;;18.10;67.30;;;;;;4921262;29;20019;-74
2022/05/13 04:48:16;;;;;;;;;;;18.10;67.40;;;;;;4921073;29;19919;-74
2022/05/13 04:50:48;;;;;;;;;;;18.10;68.30;;;;;;4921433;29;20368;-72
2022/05/13 04:53:16;;;;;;;;;;;18.10;68.90;;;;;;4921403;29;19961;-73
2022/05/13 04:55:41;;;;;;;;;;;18.30;67.00;;;;;;4921129;29;19917;-74
2022/05/13 04:58:07;;;;;;;;;;;18.20;69.20;;;;;;4920960;29;20432;-68
2022/05/13 05:00:32;;;;;;;;;;;18.20;69.80;;;;;;4921208;29;19955;-73
2022/05/13 05:02:58;;;;;;;;;;;18.20;70.00;;;;;;4920594;29;19923;-61
2022/05/13 05:05:24;;;;;;;;;;;18.10;70.90;;;;;;4920958;29;19911;-63
2022/05/13 05:07:49;;;;;;;;;;;18.20;70.00;;;;;;4920888;29;19975;-62
2022/05/13 05:10:15;;;;;;;;;;;18.30;69.30;;;;;;4920916;29;19949;-62
2022/05/13 05:12:40;;;;;;;;;;;18.40;69.20;;;;;;4920518;29;19915;-60
2022/05/13 05:15:07;;;;;;;;;;;18.50;71.30;;;;;;4920683;29;19911;-65
2022/05/13 05:17:33;;;;;;;;;;;18.70;71.10;;;;;;4920629;29;20271;-63
2022/05/13 05:19:58;;;;;;;;;;;18.80;69.90;;;;;;4920853;29;19918;-63
2022/05/13 05:22:24;;;;;;;;;;;18.60;69.80;;;;;;4920785;29;20346;-62
2022/05/13 05:24:49;;;;;;;;;;;18.60;69.40;;;;;;4920792;29;20383;-64
2022/05/13 05:27:15;;;;;;;;;;;18.60;69.50;;;;;;4921975;29;20428;-64
2022/05/13 05:29:43;;;;;;;;;;;18.70;70.30;;;;;;4930558;29;19919;-63
2022/05/13 05:32:09;;;;;;;;;;;18.70;69.90;;;;;;4930111;29;19936;-65
2022/05/13 05:34:34;;;;;;;;;;;18.70;71.30;;;;;;4931420;29;19919;-64
2022/05/13 05:37:00;;;;;;;;;;;18.70;72.10;;;;;;4921533;29;19911;-65
2022/05/13 05:39:25;;;;;;;;;;;18.70;72.00;;;;;;4920363;29;19918;-65
2022/05/13 05:41:51;;;;;;;;;;;18.80;71.90;;;;;;4919975;29;19918;-63
2022/05/13 05:44:16;;;;;;;;;;;18.90;71.80;;;;;;4920666;29;19919;-64
2022/05/13 05:46:42;;;;;;;;;;;19.20;72.00;;;;;;4920544;29;19911;-64
2022/05/13 05:49:08;;;;;;;;;;;19.80;71.00;;;;;;4919810;29;19919;-65
2022/05/13 05:51:33;;;;;;;;;;;20.20;68.20;;;;;;4919853;29;19946;-64
2022/05/13 05:57:25;;;;;;;;;;;20.90;64.00;;;;;;4919416;29;20387;-64
2022/05/13 05:59:32;;;;;;;;;;;21.20;61.50;;;;;;4914282;29;20285;-63
2022/05/13 06:01:57;;;;;;;;;;;21.40;62.10;;;;;;4919634;29;19927;-68
2022/05/13 06:04:23;;;;;;;;;;;21.70;61.70;;;;;;4919858;29;19911;-61
2022/05/13 06:06:48;;;;;;;;;;;21.90;61.40;;;;;;4919714;29;19918;-62
2022/05/13 06:09:14;;;;;;;;;;;22.20;61.20;;;;;;4919775;29;19919;-62
2022/05/13 06:11:39;;;;;;;;;;;22.40;58.90;;;;;;4919899;29;19915;-64
2022/05/13 06:14:05;;;;;;;;;;;22.50;56.10;;;;;;4919340;29;19915;-62
2022/05/13 06:16:31;;;;;;;;;;;22.70;55.60;;;;;;4925890;29;19915;-66
2022/05/13 06:19:01;;;;;;;;;;;22.80;56.40;;;;;;4937736;29;20394;-62
2022/05/13 06:21:27;;;;;;;;;;;22.90;55.00;;;;;;4937613;29;19915;-67
2022/05/13 06:23:53;;;;;;;;;;;23.10;55.30;;;;;;4932685;29;19910;-64
2022/05/13 06:26:18;;;;;;;;;;;23.30;53.90;;;;;;4937876;29;20355;-67
2022/05/13 06:28:44;;;;;;;;;;;23.40;53.40;;;;;;4937535;29;19925;-61
2022/05/13 06:31:10;;;;;;;;;;;23.50;53.10;;;;;;4937981;29;19917;-62
2022/05/13 06:33:36;;;;;;;;;;;23.50;54.40;;;;;;4920824;29;19966;-69
2022/05/13 06:36:01;;;;;;;;;;;23.60;55.30;;;;;;4937846;29;19959;-70
2022/05/13 06:38:27;;;;;;;;;;;23.70;56.20;;;;;;4938083;29;20327;-65
2022/05/13 06:40:53;;;;;;;;;;;23.80;54.80;;;;;;4938167;29;19917;-64
2022/05/13 06:43:20;;;;;;;;;;;23.90;53.80;;;;;;4937880;29;19911;-66
2022/05/13 06:45:45;;;;;;;;;;;24.10;53.60;;;;;;4937730;29;20005;-62
2022/05/13 06:48:11;;;;;;;;;;;24.20;52.10;;;;;;4936885;29;20391;-63
2022/05/13 06:50:37;;;;;;;;;;;24.40;49.70;;;;;;4936980;29;19915;-64
2022/05/13 06:53:03;;;;;;;;;;;24.50;48.40;;;;;;4937221;29;19966;-62
2022/05/13 06:55:29;;;;;;;;;;;24.70;49.50;;;;;;4937900;29;19918;-66
2022/05/13 06:57:55;;;;;;;;;;;24.60;47.30;;;;;;4937779;29;19910;-63
2022/05/13 07:00:21;;;;;;;;;;;24.50;48.00;;;;;;4937567;29;19921;-62
2022/05/13 07:02:46;;;;;;;;;;;24.50;48.20;;;;;;4936801;29;19922;-62
2022/05/13 07:05:13;;;;;;;;;;;24.60;51.00;;;;;;4936976;29;19911;-59
2022/05/13 07:07:39;;;;;;;;;;;24.80;49.80;;;;;;4937033;29;20271;-64
2022/05/13 07:10:05;;;;;;;;;;;25.00;48.90;;;;;;4937039;29;19915;-62
2022/05/13 07:12:31;;;;;;;;;;;25.20;50.50;;;;;;4936757;29;19911;-62
2022/05/13 07:14:57;;;;;;;;;;;25.30;46.90;;;;;;4936933;29;19918;-64
2022/05/13 07:17:23;;;;;;;;;;;25.50;47.60;;;;;;4936830;29;19910;-61
2022/05/13 07:19:49;;;;;;;;;;;25.40;46.00;;;;;;4936924;29;19911;-62
2022/05/13 07:22:15;;;;;;;;;;;25.40;47.40;;;;;;4937230;29;20331;-63
2022/05/13 07:24:40;;;;;;;;;;;25.50;47.40;;;;;;4937062;29;20013;-62
2022/05/13 07:27:06;;;;;;;;;;;25.50;46.70;;;;;;4937164;29;19990;-68
2022/05/13 07:29:32;;;;;;;;;;;25.50;46.10;;;;;;4920039;29;19966;-72
2022/05/13 07:31:59;;;;;;;;;;;25.40;44.70;;;;;;4937372;29;19946;-69
2022/05/13 07:34:24;;;;;;;;;;;25.40;44.40;;;;;;4937126;29;19917;-67
2022/05/13 07:36:53;;;;;;;;;;;25.50;44.90;;;;;;4936816;29;19997;-67
2022/05/13 07:42:08;;;;;;;;;;;25.60;43.40;;;;;;4937418;29;19960;-65
2022/05/13 07:44:34;;;;;;;;;;;25.50;43.40;;;;;;4919782;29;20332;-65
2022/05/13 07:47:00;;;;;;;;;;;25.40;44.40;;;;;;4937280;29;19917;-71
2022/05/13 07:49:26;;;;;;;;;;;25.60;44.40;;;;;;4936654;29;19926;-70
2022/05/13 07:51:51;;;;;;;;;;;25.80;44.10;;;;;;4936851;29;19911;-64
2022/05/13 07:54:17;;;;;;;;;;;25.80;44.00;;;;;;4935461;29;19995;-63
2022/05/13 07:56:43;;;;;;;;;;;25.90;45.60;;;;;;4936164;29;19911;-60
2022/05/13 07:59:08;;;;;;;;;;;26.00;45.30;;;;;;4936141;29;19959;-63
2022/05/13 08:07:07;;;;;;;;;;;25.80;44.60;;;;;;4939744;29;19926;-67
2022/05/13 08:09:32;;;;;;;;;;;25.70;44.20;;;;;;4947279;29;20283;-64
2022/05/13 08:11:58;;;;;;;;;;;25.80;45.10;;;;;;4943581;29;19915;-60
2022/05/13 08:14:23;;;;;;;;;;;25.70;44.70;;;;;;4922903;29;19967;-64
2022/05/13 08:16:50;;;;;;;;;;;25.70;44.80;;;;;;4917209;29;19979;-61
2022/05/13 08:19:16;;;;;;;;;;;25.50;44.20;;;;;;4917171;29;19915;-66
2022/05/13 08:21:41;;;;;;;;;;;25.50;43.70;;;;;;4916998;29;20286;-58
2022/05/13 08:24:07;;;;;;;;;;;25.40;45.30;;;;;;4916870;29;20327;-61
2022/05/13 08:26:32;;;;;;;;;;;25.50;45.90;;;;;;4916831;29;19934;-62
2022/05/13 08:28:58;;;;;;;;;;;25.70;45.60;;;;;;4916823;29;19946;-60
2022/05/13 08:31:23;;;;;;;;;;;25.60;46.10;;;;;;4917430;29;20067;-60
2022/05/13 08:33:49;;;;;;;;;;;25.60;46.90;;;;;;4917052;29;19955;-61
2022/05/13 08:36:15;;;;;;;;;;;25.70;45.20;;;;;;4917418;29;20472;-60
2022/05/13 08:38:42;;;;;;;;;;;25.70;44.00;;;;;;4917256;29;19911;-62
2022/05/13 08:41:08;;;;;;;;;;;25.70;44.90;;;;;;4917161;29;19918;-61
2022/05/13 08:43:37;;;;;;;;;;;25.60;44.40;;;;;;4917117;29;19911;-61
2022/05/13 08:46:05;;;;;;;;;;;25.60;43.80;;;;;;4917243;29;20007;-61
2022/05/13 08:48:31;;;;;;;;;;;25.70;47.20;;;;;;4916771;29;19998;-61
2022/05/13 08:51:20;;;;;;;;;;;25.80;48.10;;;;;;4917083;29;19915;-61
2022/05/13 08:53:55;;;;;;;;;;;25.80;47.30;;;;;;4917049;29;19911;-61
2022/05/13 08:56:29;;;;;;;;;;;25.90;48.70;;;;;;4917357;29;19911;-60
2022/05/13 08:59:07;;;;;;;;;;;25.80;47.70;;;;;;4917152;29;19911;-60
2022/05/13 09:01:35;;;;;;;;;;;25.80;45.90;;;;;;4916655;29;20371;-62
2022/05/13 09:04:05;;;;;;;;;;;25.70;46.60;;;;;;4917067;29;20290;-61
2022/05/13 09:06:39;;;;;;;;;;;25.50;45.40;;;;;;4916616;29;19959;-62
2022/05/13 09:09:07;;;;;;;;;;;25.40;45.20;;;;;;4916386;29;19956;-62
2022/05/13 09:11:36;;;;;;;;;;;25.40;45.70;;;;;;4917223;29;20271;-63
2022/05/13 09:14:12;;;;;;;;;;;25.30;46.80;;;;;;4916538;29;20017;-62
2022/05/13 09:16:40;;;;;;;;;;;25.40;48.00;;;;;;4918704;29;20256;-64
2022/05/13 09:19:09;;;;;;;;;;;25.30;47.40;;;;;;4920211;29;20426;-61
2022/05/13 09:21:40;;;;;;;;;;;25.30;48.60;;;;;;4920417;29;19915;-62
2022/05/13 09:24:06;;;;;;;;;;;25.30;48.20;;;;;;4920203;29;20325;-61
2022/05/13 09:26:31;;;;;;;;;;;25.30;47.80;;;;;;4903148;29;20279;-65
2022/05/13 09:29:07;;;;;;;;;;;25.30;48.20;;;;;;4902911;29;19926;-64
2022/05/13 09:31:34;;;;;;;;;;;25.30;48.80;;;;;;4920149;29;20015;-64
2022/05/13 09:34:00;;;;;;;;;;;25.30;48.60;;;;;;4920060;29;19957;-67
2022/05/13 09:36:26;;;;;;;;;;;25.30;48.80;;;;;;4919906;29;20387;-65
2022/05/13 09:38:54;;;;;;;;;;;25.30;48.60;;;;;;4920140;29;19912;-64
2022/05/13 09:41:24;;;;;;;;;;;25.30;48.60;;;;;;4919955;29;20323;-63
2022/05/13 09:43:54;;;;;;;;;;;25.20;47.60;;;;;;4919852;29;20347;-63
2022/05/13 09:46:30;;;;;;;;;;;25.20;47.30;;;;;;4919788;29;19918;-64
2022/05/13 09:48:58;;;;;;;;;;;25.10;48.50;;;;;;4920021;29;19919;-64
2022/05/13 09:51:38;;;;;;;;;;;25.20;49.80;;;;;;4919860;29;19911;-66
2022/05/13 09:54:12;;;;;;;;;;;25.30;49.60;;;;;;4919799;29;19967;-64
2022/05/13 09:56:41;;;;;;;;;;;25.20;50.60;;;;;;4902693;29;20412;-62
2022/05/13 09:59:13;;;;;;;;;;;25.10;49.90;;;;;;4919765;29;20047;-65
2022/05/13 10:01:39;;;;;;;;;;;25.00;50.90;;;;;;4919681;29;19922;-68
2022/05/13 10:04:12;;;;;;;;;;;25.00;51.50;;;;;;4919097;29;19911;-63
2022/05/13 10:06:38;;;;;;;;;;;24.90;51.50;;;;;;4919417;29;19921;-66
2022/05/13 10:14:38;;;;;;;;;;;24.80;52.00;;;;;;4919461;29;19991;-62
2022/05/13 10:17:06;;;;;;;;;;;24.80;52.10;;;;;;4919536;29;19911;-60
2022/05/13 10:19:34;;;;;;;;;;;24.80;51.70;;;;;;4919507;29;19915;-61
2022/05/13 10:22:00;;;;;;;;;;;24.80;52.30;;;;;;4919187;29;19911;-63
2022/05/13 10:24:31;;;;;;;;;;;24.80;52.50;;;;;;4919266;29;19911;-65
2022/05/13 10:26:58;;;;;;;;;;;24.80;51.30;;;;;;4918913;29;20335;-61
2022/05/13 10:29:26;;;;;;;;;;;24.80;51.90;;;;;;4920222;29;20386;-63
2022/05/13 10:31:53;;;;;;;;;;;24.70;53.70;;;;;;4902326;29;20282;-64
2022/05/13 10:34:21;;;;;;;;;;;24.70;52.90;;;;;;4919084;29;19915;-63
2022/05/13 10:36:59;;;;;;;;;;;24.60;53.80;;;;;;4919341;29;19911;-63
2022/05/13 10:39:38;;;;;;;;;;;24.70;53.40;;;;;;4919137;29;19911;-66
2022/05/13 10:42:12;;;;;;;;;;;24.60;53.30;;;;;;4919080;29;19966;-63
2022/05/13 10:44:56;;;;;;;;;;;24.70;52.40;;;;;;4918852;29;19971;-67
2022/05/13 10:47:41;;;;;;;;;;;24.60;53.20;;;;;;4919050;29;19911;-64
2022/05/13 10:50:14;;;;;;;;;;;24.50;52.80;;;;;;4918796;29;19965;-63
2022/05/13 10:52:39;;;;;;;;;;;24.50;53.40;;;;;;4918734;29;19948;-63
2022/05/13 10:55:09;;;;;;;;;;;24.40;53.30;;;;;;4918792;29;19954;-63
2022/05/13 10:57:51;;;;;;;;;;;24.30;53.40;;;;;;4901515;29;19919;-65
2022/05/13 11:00:23;;;;;;;;;;;24.30;53.60;;;;;;4918468;29;19916;-63
2022/05/13 11:02:49;;;;;;;;;;;24.30;53.20;;;;;;4918747;29;19977;-63
2022/05/13 11:05:33;;;;;;;;;;;24.30;53.80;;;;;;4918789;29;20364;-61
2022/05/13 11:08:19;;;;;;;;;;;24.30;54.60;;;;;;4918260;29;19923;-65
2022/05/13 11:10:49;;;;;;;;;;;24.30;54.30;;;;;;4863821;29;19915;-63
2022/05/13 11:13:33;;;;;;;;;;;24.30;54.50;;;;;;4918155;29;19922;-68
2022/05/13 11:16:10;;;;;;;;;;;24.30;54.30;;;;;;4916532;29;19915;-67
2022/05/13 11:18:43;;;;;;;;;;;24.30;54.40;;;;;;4915777;29;19911;-65
2022/05/13 11:21:24;;;;;;;;;;;24.40;54.70;;;;;;4917786;29;19966;-64
2022/05/13 11:27:15;;;;;;;;;;;24.30;55.50;;;;;;4860207;29;19939;-64
2022/05/13 11:29:45;;;;;;;;;;;24.30;55.60;;;;;;4918136;29;20375;-62
2022/05/13 11:32:14;;;;;;;;;;;24.40;55.20;;;;;;4918360;29;20047;-64
2022/05/13 11:34:45;;;;;;;;;;;24.40;56.00;;;;;;4900756;29;19911;-64
2022/05/13 11:37:16;;;;;;;;;;;24.40;55.30;;;;;;4918050;29;20355;-62
2022/05/13 11:39:51;;;;;;;;;;;24.30;54.60;;;;;;4915754;29;21600;-62
2022/05/13 11:42:16;;;;;;;;;;;24.30;54.30;;;;;;4917541;29;19912;-62
2022/05/13 11:44:49;;;;;;;;;;;24.30;54.00;;;;;;4916977;29;19979;-61
2022/05/13 11:47:19;;;;;;;;;;;24.20;54.70;;;;;;4917127;29;19915;-60
2022/05/13 11:49:47;;;;;;;;;;;24.20;54.70;;;;;;4914888;29;19923;-61
2022/05/13 11:52:12;;;;;;;;;;;24.30;53.20;;;;;;4917201;29;20410;-61
2022/05/13 11:54:42;;;;;;;;;;;24.30;53.50;;;;;;4916494;29;20018;-60
2022/05/13 11:57:16;;;;;;;;;;;24.20;53.30;;;;;;4898623;29;19915;-60
2022/05/13 11:59:49;;;;;;;;;;;24.10;54.10;;;;;;4916418;29;19918;-61
2022/05/13 12:02:29;;;;;;;;;;;24.10;53.90;;;;;;4916149;29;20308;-60
2022/05/13 12:05:05;;;;;;;;;;;24.10;52.60;;;;;;4916113;29;19912;-61
2022/05/13 12:07:32;;;;;;;;;;;24.20;53.40;;;;;;4913587;29;19919;-61
2022/05/13 12:10:00;;;;;;;;;;;24.20;53.70;;;;;;4915593;29;19942;-60
2022/05/13 12:12:32;;;;;;;;;;;24.20;53.40;;;;;;4916183;29;20320;-61
2022/05/13 12:15:00;;;;;;;;;;;24.30;54.00;;;;;;4915951;29;19911;-60
2022/05/13 12:17:26;;;;;;;;;;;24.20;53.40;;;;;;4916527;29;20298;-61
2022/05/13 12:19:52;;;;;;;;;;;24.30;53.40;;;;;;4899710;29;20359;-60
2022/05/13 12:22:30;;;;;;;;;;;24.30;51.90;;;;;;4916904;29;19997;-60
2022/05/13 12:25:04;;;;;;;;;;;24.30;52.40;;;;;;4916745;29;19921;-60
2022/05/13 12:27:34;;;;;;;;;;;24.30;53.50;;;;;;4916500;29;19911;-61
2022/05/13 12:30:01;;;;;;;;;;;24.30;53.60;;;;;;4916068;29;20363;-61
2022/05/13 12:32:43;;;;;;;;;;;24.30;54.20;;;;;;4916444;29;19911;-60
2022/05/13 12:38:06;;;;;;;;;;;24.30;54.00;;;;;;4916689;29;20411;-60
2022/05/13 12:40:34;;;;;;;;;;;24.40;54.50;;;;;;4899379;29;19935;-60
2022/05/13 12:43:06;;;;;;;;;;;24.40;54.60;;;;;;4916077;29;19918;-60
2022/05/13 12:45:38;;;;;;;;;;;24.40;54.90;;;;;;4916174;29;19915;-60
2022/05/13 12:48:03;;;;;;;;;;;24.50;54.60;;;;;;4916085;29;20005;-61
2022/05/13 12:50:49;;;;;;;;;;;24.50;53.20;;;;;;4916797;29;20026;-59
2022/05/13 12:53:27;;;;;;;;;;;24.50;53.30;;;;;;4919380;29;20378;-60
2022/05/13 12:56:13;;;;;;;;;;;24.60;53.80;;;;;;4920287;29;20279;-61
2022/05/13 12:58:43;;;;;;;;;;;24.60;53.80;;;;;;4921216;29;19937;-61
2022/05/13 13:01:11;;;;;;;;;;;24.60;53.90;;;;;;4919980;29;19958;-62
2022/05/13 13:03:38;;;;;;;;;;;24.50;54.70;;;;;;4920141;29;19912;-59
2022/05/13 13:06:11;;;;;;;;;;;24.50;54.60;;;;;;4920844;29;20338;-62
2022/05/13 13:08:38;;;;;;;;;;;24.50;54.70;;;;;;4920321;29;19930;-61
2022/05/13 13:11:07;;;;;;;;;;;24.60;54.90;;;;;;4920542;29;20351;-62
2022/05/13 13:13:50;;;;;;;;;;;24.60;55.30;;;;;;4920237;29;19949;-63
2022/05/13 13:16:21;;;;;;;;;;;24.60;54.50;;;;;;4920592;29;20296;-62
2022/05/13 13:18:56;;;;;;;;;;;24.60;54.90;;;;;;4920503;29;19912;-64
2022/05/13 13:21:21;;;;;;;;;;;24.60;54.90;;;;;;4920758;29;19911;-63
2022/05/13 13:23:47;;;;;;;;;;;24.60;54.50;;;;;;4920222;29;19917;-63
2022/05/13 13:26:14;;;;;;;;;;;24.60;54.50;;;;;;4920136;29;20006;-66
2022/05/13 13:28:40;;;;;;;;;;;24.60;54.60;;;;;;4920196;29;19930;-64
2022/05/13 13:31:09;;;;;;;;;;;24.70;54.30;;;;;;4920235;29;20240;-63
2022/05/13 13:33:36;;;;;;;;;;;24.70;53.70;;;;;;4919922;29;19971;-64
2022/05/13 13:36:08;;;;;;;;;;;24.80;53.30;;;;;;4903084;29;20363;-63
2022/05/13 13:38:34;;;;;;;;;;;24.70;52.00;;;;;;4919982;29;20355;-63
2022/05/13 13:41:00;;;;;;;;;;;24.80;53.40;;;;;;4902804;29;19911;-62
2022/05/13 13:43:27;;;;;;;;;;;24.80;52.50;;;;;;4919659;29;19911;-62
2022/05/13 13:45:55;;;;;;;;;;;24.80;53.00;;;;;;4919933;29;20002;-62
2022/05/13 13:48:27;;;;;;;;;;;24.90;53.20;;;;;;4919870;29;19919;-62
2022/05/13 13:50:53;;;;;;;;;;;25.00;53.10;;;;;;4919788;29;20319;-62
2022/05/13 13:53:24;;;;;;;;;;;25.10;52.30;;;;;;4919799;29;19959;-61
2022/05/13 13:55:50;;;;;;;;;;;25.20;52.60;;;;;;4919485;29;19915;-65
2022/05/13 13:58:39;;;;;;;;;;;25.30;52.50;;;;;;4919672;29;20323;-64
2022/05/13 14:01:17;;;;;;;;;;;25.30;51.50;;;;;;4911835;29;19917;-64
2022/05/13 14:03:43;;;;;;;;;;;25.30;52.30;;;;;;4919162;29;19915;-61
2022/05/13 14:06:18;;;;;;;;;;;25.10;50.70;;;;;;4919169;29;19919;-65
2022/05/13 14:08:48;;;;;;;;;;;25.20;51.80;;;;;;4917105;29;19962;-67
2022/05/13 14:11:15;;;;;;;;;;;25.20;50.70;;;;;;4918965;29;19926;-68
2022/05/13 14:13:43;;;;;;;;;;;25.30;50.10;;;;;;4918870;29;19907;-62
2022/05/13 14:16:16;;;;;;;;;;;25.30;50.10;;;;;;4918751;29;20406;-62
2022/05/13 14:18:43;;;;;;;;;;;25.30;48.70;;;;;;4916850;29;19947;-63
2022/05/13 14:21:12;;;;;;;;;;;25.10;48.90;;;;;;4918892;29;20430;-64
2022/05/13 14:23:38;;;;;;;;;;;25.20;48.10;;;;;;4918546;29;19915;-63
2022/05/13 14:26:05;;;;;;;;;;;25.20;48.60;;;;;;4918868;29;19958;-63
2022/05/13 14:28:45;;;;;;;;;;;25.20;47.60;;;;;;4918668;29;20295;-61
2022/05/13 14:31:13;;;;;;;;;;;25.30;48.60;;;;;;4917728;29;19974;-64
2022/05/13 14:33:40;;;;;;;;;;;25.30;48.80;;;;;;4918870;29;19958;-61
2022/05/13 14:36:07;;;;;;;;;;;25.40;49.10;;;;;;4918774;29;19911;-61
2022/05/13 14:41:27;;;;;;;;;;;25.40;49.50;;;;;;4918544;29;19957;-62
2022/05/13 14:43:54;;;;;;;;;;;25.50;49.70;;;;;;4901592;29;19915;-61
2022/05/13 14:46:24;;;;;;;;;;;25.50;49.20;;;;;;4918471;29;20316;-61
2022/05/13 14:48:50;;;;;;;;;;;25.50;49.80;;;;;;4916113;29;19984;-61
2022/05/13 14:51:15;;;;;;;;;;;25.50;50.10;;;;;;4901630;29;19962;-60
2022/05/13 14:54:00;;;;;;;;;;;25.50;50.50;;;;;;4918898;29;19911;-63
2022/05/13 14:56:28;;;;;;;;;;;25.40;51.50;;;;;;4918827;29;19911;-64
2022/05/13 14:58:58;;;;;;;;;;;25.40;52.00;;;;;;4918433;29;20361;-61